createdAt,value
2022-08-14T00:05:13.011Z,23.20
2022-08-14T00:15:19.377Z,23.17
2022-08-14T00:25:41.652Z,23.08
2022-08-14T00:36:36.735Z,23.12
2022-08-14T00:46:23.253Z,23.06
2022-08-14T00:56:34.840Z,22.96
2022-08-14T01:06:39.511Z,22.81
2022-08-14T01:16:42.810Z,22.71
2022-08-14T01:26:53.284Z,22.63
2022-08-14T01:36:55.996Z,22.65
2022-08-14T01:47:01.766Z,22.51
2022-08-14T01:57:11.485Z,22.49
2022-08-14T02:07:15.992Z,22.54
2022-08-14T02:17:23.634Z,22.49
2022-08-14T02:28:24.891Z,22.39
2022-08-14T02:37:51.862Z,22.28
2022-08-14T02:47:57.584Z,22.17
2022-08-14T02:58:03.393Z,22.12
2022-08-14T03:08:11.111Z,22.12
2022-08-14T03:18:15.338Z,22.04
2022-08-14T03:28:32.935Z,21.99
2022-08-14T03:39:13.081Z,22.06
2022-08-14T03:49:08.695Z,22.03
2022-08-14T03:59:17.855Z,21.93
2022-08-14T04:09:22.303Z,21.77
2022-08-14T04:19:36.372Z,21.61
2022-08-14T04:29:42.375Z,21.57
2022-08-14T04:40:03.351Z,21.53
2022-08-14T04:50:09.140Z,21.51
2022-08-14T05:00:16.189Z,21.68
2022-08-14T05:10:25.951Z,21.62
2022-08-14T05:21:54.740Z,21.77
2022-08-14T05:31:00.916Z,21.96
2022-08-14T05:41:06.435Z,22.25
2022-08-14T05:51:13.444Z,22.47
2022-08-14T06:01:16.524Z,22.69
2022-08-14T06:11:30.759Z,22.94
2022-08-14T06:21:34.081Z,23.17
2022-08-14T06:31:39.279Z,23.39
2022-08-14T06:41:57.213Z,23.70
2022-08-14T06:52:03.076Z,24.12
2022-08-14T07:02:29.147Z,24.39
2022-08-14T07:12:54.087Z,24.76
2022-08-14T07:23:01.396Z,25.08
2022-08-14T07:33:12.681Z,25.39
2022-08-14T07:43:16.445Z,25.72
2022-08-14T07:53:21.657Z,26.06
2022-08-14T08:03:27.980Z,26.35
2022-08-14T08:13:34.787Z,26.66
2022-08-14T08:23:43.579Z,26.99
2022-08-14T08:33:55.421Z,27.23
2022-08-14T08:44:16.971Z,27.50
2022-08-14T08:54:26.759Z,27.79
2022-08-14T09:04:37.286Z,28.06
2022-08-14T09:14:53.163Z,28.29
2022-08-14T09:24:56.279Z,28.38
2022-08-14T09:35:09.496Z,28.92
2022-08-14T09:45:17.021Z,28.93
2022-08-14T09:55:22.234Z,29.35
2022-08-14T10:05:31.494Z,29.72
2022-08-14T10:15:46.775Z,29.97
2022-08-14T10:25:53.133Z,30.46
2022-08-14T10:36:00.542Z,30.97
2022-08-14T10:46:59.515Z,30.69
2022-08-14T10:56:34.965Z,31.09
2022-08-14T11:06:38.797Z,31.43
2022-08-14T11:16:53.669Z,31.66
2022-08-14T11:26:57.400Z,32.43
2022-08-14T11:37:21.960Z,34.19
2022-08-14T11:47:35.543Z,32.00
2022-08-14T11:58:03.312Z,37.43
2022-08-14T12:08:12.138Z,39.79
2022-08-14T12:18:19.803Z,42.32
2022-08-14T12:28:27.149Z,40.70
2022-08-14T12:38:41.335Z,43.31
2022-08-14T12:48:50.350Z,40.61
2022-08-14T12:58:57.879Z,36.43
2022-08-14T13:09:02.043Z,34.48
2022-08-14T13:19:11.154Z,34.42
2022-08-14T13:29:18.548Z,34.39
2022-08-14T13:39:26.672Z,34.39
2022-08-14T13:49:30.055Z,34.69
2022-08-14T13:59:37.763Z,34.37
2022-08-14T14:09:52.734Z,34.74
2022-08-14T14:19:57.593Z,34.14
2022-08-14T14:30:01.559Z,34.05
2022-08-14T14:40:53.053Z,33.66
2022-08-14T14:50:32.710Z,33.73
2022-08-14T15:00:38.217Z,34.19
2022-08-14T15:10:40.905Z,32.79
2022-08-14T15:20:54.036Z,33.16
2022-08-14T15:30:59.351Z,33.28
2022-08-14T15:41:08.536Z,33.06
2022-08-14T15:51:11.626Z,33.04
2022-08-14T16:01:43.642Z,32.76
2022-08-14T16:11:47.475Z,32.73
2022-08-14T16:22:57.342Z,32.57
2022-08-14T16:32:33.203Z,32.54
2022-08-14T16:43:04.384Z,32.47
2022-08-14T16:53:07.410Z,32.07
2022-08-14T17:03:14.562Z,31.86
2022-08-14T17:13:18.283Z,31.57
2022-08-14T17:23:22.406Z,31.49
2022-08-14T17:33:40.583Z,31.24
2022-08-14T17:43:54.916Z,30.97
2022-08-14T17:54:02.944Z,30.74
2022-08-14T18:04:25.147Z,30.52
2022-08-14T18:14:48.718Z,30.26
2022-08-14T18:24:54.602Z,29.97
2022-08-14T18:35:11.167Z,29.61
2022-08-14T18:45:28.892Z,29.12
2022-08-14T18:55:54.079Z,28.64
2022-08-14T19:05:59.198Z,28.24
2022-08-14T19:16:07.454Z,27.89
2022-08-14T19:26:35.578Z,27.64
2022-08-14T19:37:05.173Z,27.51
2022-08-14T19:47:11.645Z,27.51
2022-08-14T19:57:18.948Z,27.34
2022-08-14T20:07:59.734Z,27.12
2022-08-14T20:17:55.329Z,26.96
2022-08-14T20:28:29.934Z,26.75
2022-08-14T20:38:33.793Z,26.67
2022-08-14T20:48:50.931Z,26.48
2022-08-14T20:58:56.179Z,26.30
2022-08-14T21:09:03.259Z,26.22
2022-08-14T21:19:08.500Z,26.12
2022-08-14T21:29:14.282Z,26.12
2022-08-14T21:39:18.519Z,26.10
2022-08-14T21:49:24.222Z,26.09
2022-08-14T21:59:29.704Z,26.01
2022-08-14T22:09:36.654Z,26.07
2022-08-14T22:19:43.555Z,25.87
2022-08-14T22:29:59.016Z,25.67
2022-08-14T22:40:58.125Z,25.88
2022-08-14T22:50:28.874Z,25.80
2022-08-14T23:00:35.074Z,25.66
2022-08-14T23:10:39.743Z,25.63
2022-08-14T23:20:44.363Z,25.58
2022-08-14T23:30:49.024Z,25.54
2022-08-14T23:40:52.112Z,25.56
2022-08-14T23:50:56.389Z,25.49
